createdAt,value
2022-09-10T00:02:00.296Z,5.70
2022-09-10T00:04:30.079Z,5.90
2022-09-10T00:06:58.157Z,6.53
2022-09-10T00:09:25.760Z,6.00
2022-09-10T00:11:53.352Z,5.73
2022-09-10T00:14:23.806Z,6.30
2022-09-10T00:16:51.665Z,5.90
2022-09-10T00:19:19.571Z,6.70
2022-09-10T00:21:50.086Z,5.77
2022-09-10T00:24:17.658Z,6.77
2022-09-10T00:26:45.646Z,5.70
2022-09-10T00:29:15.822Z,6.20
2022-09-10T00:31:44.913Z,6.20
2022-09-10T00:34:13.951Z,5.97
2022-09-10T00:36:43.891Z,5.47
2022-09-10T00:39:15.046Z,6.60
2022-09-10T00:41:44.226Z,7.10
2022-09-10T00:44:45.169Z,6.70
2022-09-10T00:47:15.858Z,6.33
2022-09-10T00:49:46.392Z,6.60
2022-09-10T00:52:14.234Z,6.87
2022-09-10T00:54:43.917Z,9.57
2022-09-10T00:57:15.101Z,6.73
2022-09-10T00:59:45.728Z,6.33
2022-09-10T01:02:14.852Z,7.27
2022-09-10T01:04:43.110Z,6.90
2022-09-10T01:07:11.854Z,7.10
2022-09-10T01:09:40.678Z,8.03
2022-09-10T01:12:22.675Z,6.90
2022-09-10T01:15:04.487Z,6.97
2022-09-10T01:17:36.959Z,7.10
2022-09-10T01:20:25.807Z,6.63
2022-09-10T01:23:17.594Z,6.47
2022-09-10T01:25:54.739Z,6.67
2022-09-10T01:28:28.314Z,6.93
2022-09-10T01:31:02.019Z,6.00
2022-09-10T01:33:34.258Z,6.10
2022-09-10T01:36:05.547Z,5.23
2022-09-10T01:38:35.518Z,5.73
2022-09-10T01:41:04.342Z,5.27
2022-09-10T01:43:38.598Z,5.60
2022-09-10T01:46:18.462Z,4.70
2022-09-10T01:49:05.067Z,6.60
2022-09-10T01:51:39.044Z,5.60
2022-09-10T01:54:18.085Z,5.67
2022-09-10T01:56:52.337Z,5.47
2022-09-10T01:59:27.032Z,5.10
2022-09-10T02:02:01.274Z,5.30
2022-09-10T02:04:29.837Z,5.60
2022-09-10T02:06:58.211Z,5.23
2022-09-10T02:09:25.822Z,5.27
2022-09-10T02:11:54.988Z,5.20
2022-09-10T02:14:40.546Z,16.73
2022-09-10T02:17:33.551Z,8.27
2022-09-10T02:20:02.664Z,6.73
2022-09-10T02:22:31.629Z,8.13
2022-09-10T02:24:59.582Z,5.50
2022-09-10T02:27:29.972Z,12.40
2022-09-10T02:29:59.306Z,6.53
2022-09-10T02:32:26.907Z,7.87
2022-09-10T02:34:54.416Z,5.80
2022-09-10T02:37:21.979Z,7.10
2022-09-10T02:39:49.589Z,5.80
2022-09-10T02:42:18.096Z,5.23
2022-09-10T02:44:47.996Z,5.73
2022-09-10T02:47:18.975Z,6.97
2022-09-10T02:49:47.017Z,5.50
2022-09-10T02:52:14.588Z,5.53
2022-09-10T02:54:42.319Z,6.63
2022-09-10T02:57:12.215Z,4.73
2022-09-10T02:59:39.781Z,5.03
2022-09-10T03:02:07.378Z,5.30
2022-09-10T03:04:36.364Z,7.60
2022-09-10T03:07:04.146Z,5.73
2022-09-10T03:09:31.687Z,5.90
2022-09-10T03:11:59.670Z,6.13
2022-09-10T03:14:30.225Z,6.30
2022-09-10T03:16:58.201Z,6.03
2022-09-10T03:19:26.627Z,6.73
2022-09-10T03:21:55.566Z,6.20
2022-09-10T03:24:23.309Z,6.27
2022-09-10T03:26:50.863Z,6.07
2022-09-10T03:29:18.469Z,6.37
2022-09-10T03:31:46.619Z,6.10
2022-09-10T03:34:16.249Z,5.83
2022-09-10T03:36:47.286Z,6.07
2022-09-10T03:39:18.381Z,5.57
2022-09-10T03:41:46.347Z,5.80
2022-09-10T03:44:17.119Z,5.40
2022-09-10T03:46:45.681Z,5.63
2022-09-10T03:49:17.811Z,6.37
2022-09-10T03:51:45.364Z,5.53
2022-09-10T03:54:16.202Z,5.10
2022-09-10T03:56:44.854Z,5.47
2022-09-10T03:59:13.342Z,5.03
2022-09-10T04:01:41.605Z,5.23
2022-09-10T04:04:09.267Z,5.17
2022-09-10T04:06:37.569Z,5.37
2022-09-10T04:09:05.736Z,5.43
2022-09-10T04:11:34.979Z,4.80
2022-09-10T04:14:02.944Z,5.37
2022-09-10T04:16:32.481Z,5.30
2022-09-10T04:19:00.756Z,5.17
2022-09-10T04:21:29.814Z,5.27
2022-09-10T04:23:59.236Z,5.30
2022-09-10T04:26:27.169Z,5.33
2022-09-10T04:28:57.053Z,6.20
2022-09-10T04:31:24.687Z,5.33
2022-09-10T04:33:56.950Z,6.10
2022-09-10T04:36:27.052Z,5.83
2022-09-10T04:38:54.939Z,5.97
2022-09-10T04:41:22.827Z,5.93
2022-09-10T04:43:50.816Z,5.43
2022-09-10T04:46:19.803Z,5.13
2022-09-10T04:48:51.914Z,5.87
2022-09-10T04:51:22.805Z,5.40
2022-09-10T04:53:53.752Z,6.63
2022-09-10T04:56:25.963Z,6.10
2022-09-10T04:58:53.667Z,6.97
2022-09-10T05:01:22.604Z,6.70
2022-09-10T05:03:53.139Z,6.07
2022-09-10T05:06:21.123Z,6.67
2022-09-10T05:08:49.383Z,7.10
2022-09-10T05:11:19.605Z,6.97
2022-09-10T05:13:47.393Z,5.80
2022-09-10T05:16:18.269Z,6.10
2022-09-10T05:18:48.452Z,5.53
2022-09-10T05:21:18.562Z,6.13
2022-09-10T05:23:46.645Z,6.20
2022-09-10T05:26:14.254Z,6.13
2022-09-10T05:28:43.302Z,5.90
2022-09-10T05:31:14.715Z,6.17
2022-09-10T05:33:44.279Z,6.40
2022-09-10T05:36:15.029Z,6.53
2022-09-10T05:38:45.529Z,7.03
2022-09-10T05:41:13.717Z,6.17
2022-09-10T05:43:45.734Z,6.03
2022-09-10T05:46:13.737Z,6.67
2022-09-10T05:48:45.790Z,6.80
2022-09-10T05:51:15.987Z,6.40
2022-09-10T05:53:44.767Z,7.10
2022-09-10T05:56:12.764Z,7.33
2022-09-10T05:58:41.875Z,6.77
2022-09-10T06:01:11.060Z,6.57
2022-09-10T06:03:40.365Z,7.83
2022-09-10T06:06:09.815Z,7.17
2022-09-10T06:08:41.430Z,7.43
2022-09-10T06:11:14.249Z,7.63
2022-09-10T06:13:45.845Z,8.10
2022-09-10T06:16:14.348Z,8.10
2022-09-10T06:18:44.065Z,8.73
2022-09-10T06:21:15.460Z,8.27
2022-09-10T06:23:46.335Z,8.00
2022-09-10T06:26:18.417Z,8.20
2022-09-10T06:28:47.561Z,8.80
2022-09-10T06:31:17.690Z,8.33
2022-09-10T06:33:46.707Z,8.50
2022-09-10T06:36:16.686Z,8.30
2022-09-10T06:38:45.946Z,9.07
2022-09-10T06:41:15.328Z,8.20
2022-09-10T06:43:51.007Z,8.17
2022-09-10T06:47:35.883Z,8.43
2022-09-10T06:49:31.280Z,8.93
2022-09-10T06:51:58.899Z,9.77
2022-09-10T06:54:28.649Z,8.50
2022-09-10T06:57:01.330Z,7.43
2022-09-10T06:59:31.321Z,7.63
2022-09-10T07:02:00.413Z,8.77
2022-09-10T07:04:28.696Z,8.43
2022-09-10T07:06:59.622Z,7.90
2022-09-10T07:09:28.695Z,7.57
2022-09-10T07:11:58.518Z,8.73
2022-09-10T07:14:28.508Z,7.37
2022-09-10T07:16:58.001Z,7.67
2022-09-10T07:19:30.707Z,7.07
2022-09-10T07:21:58.356Z,7.50
2022-09-10T07:24:26.179Z,7.17
2022-09-10T07:27:07.190Z,7.30
2022-09-10T07:29:36.394Z,7.87
2022-09-10T07:32:05.268Z,8.03
2022-09-10T07:34:33.286Z,7.20
2022-09-10T07:37:02.094Z,8.13
2022-09-10T07:39:31.335Z,8.30
2022-09-10T07:42:00.378Z,9.13
2022-09-10T07:44:31.968Z,9.40
2022-09-10T07:47:03.377Z,9.10
2022-09-10T07:49:32.590Z,10.70
2022-09-10T07:52:00.416Z,10.10
2022-09-10T07:54:33.225Z,10.47
2022-09-10T07:57:01.542Z,12.67
2022-09-10T07:59:30.368Z,12.47
2022-09-10T08:02:02.474Z,12.30
2022-09-10T08:04:36.418Z,11.60
2022-09-10T08:07:06.784Z,10.63
2022-09-10T08:09:37.418Z,10.37
2022-09-10T08:12:07.671Z,10.83
2022-09-10T08:14:37.286Z,9.17
2022-09-10T08:17:06.919Z,10.40
2022-09-10T08:19:39.432Z,10.40
2022-09-10T08:22:11.488Z,12.57
2022-09-10T08:24:44.710Z,12.03
2022-09-10T08:27:13.012Z,13.63
2022-09-10T08:29:41.810Z,13.23
2022-09-10T08:32:12.976Z,11.80
2022-09-10T08:34:41.158Z,11.47
2022-09-10T08:37:10.657Z,11.53
2022-09-10T08:39:39.491Z,11.43
2022-09-10T08:42:12.853Z,11.13
2022-09-10T08:44:48.979Z,12.43
2022-09-10T08:47:26.196Z,11.23
2022-09-10T08:49:59.476Z,10.90
2022-09-10T08:52:31.103Z,10.43
2022-09-10T08:55:03.940Z,12.20
2022-09-10T08:57:34.618Z,12.17
2022-09-10T09:00:03.748Z,12.97
2022-09-10T09:02:49.287Z,13.33
2022-09-10T09:05:20.520Z,12.43
2022-09-10T09:07:51.650Z,14.10
2022-09-10T09:10:22.126Z,14.60
2022-09-10T09:13:10.388Z,13.97
2022-09-10T09:15:44.528Z,12.37
2022-09-10T09:18:21.556Z,12.80
2022-09-10T09:20:52.573Z,13.93
2022-09-10T09:23:25.000Z,13.13
2022-09-10T09:25:56.367Z,15.70
2022-09-10T09:28:33.015Z,16.43
2022-09-10T09:31:09.334Z,16.03
2022-09-10T09:33:38.903Z,15.83
2022-09-10T09:36:08.359Z,15.47
2022-09-10T09:38:38.818Z,13.90
2022-09-10T09:41:14.526Z,16.33
2022-09-10T09:43:51.376Z,13.87
2022-09-10T09:46:21.826Z,14.00
2022-09-10T09:48:56.655Z,16.03
2022-09-10T09:51:27.714Z,14.77
2022-09-10T09:54:25.858Z,15.70
2022-09-10T09:56:49.753Z,14.70
2022-09-10T09:59:27.569Z,15.90
2022-09-10T10:01:55.646Z,14.83
2022-09-10T10:04:26.802Z,14.60
2022-09-10T10:06:55.880Z,14.37
2022-09-10T10:09:24.827Z,14.03
2022-09-10T10:11:53.822Z,14.20
2022-09-10T10:14:24.680Z,14.00
2022-09-10T10:16:57.311Z,13.50
2022-09-10T10:19:34.100Z,13.80
2022-09-10T10:22:21.466Z,14.30
2022-09-10T10:24:53.916Z,13.80
2022-09-10T10:27:29.113Z,13.40
2022-09-10T10:29:59.000Z,14.40
2022-09-10T10:32:34.771Z,16.23
2022-09-10T10:35:34.203Z,13.90
2022-09-10T10:38:28.450Z,15.63
2022-09-10T10:41:09.493Z,16.87
2022-09-10T10:43:45.082Z,16.00
2022-09-10T10:46:17.049Z,15.00
2022-09-10T10:48:57.946Z,15.67
2022-09-10T10:51:35.688Z,14.80
2022-09-10T10:54:12.666Z,15.03
2022-09-10T10:56:43.509Z,13.80
2022-09-10T10:59:28.502Z,14.87
2022-09-10T11:01:59.273Z,14.00
2022-09-10T11:04:33.042Z,15.10
2022-09-10T11:07:07.549Z,14.90
2022-09-10T11:09:39.019Z,15.87
2022-09-10T11:12:11.282Z,15.23
2022-09-10T11:14:42.563Z,16.93
2022-09-10T11:17:14.133Z,15.97
2022-09-10T11:19:53.326Z,15.30
2022-09-10T11:22:36.492Z,17.53
2022-09-10T11:25:10.500Z,16.17
2022-09-10T11:27:41.149Z,14.40
2022-09-10T11:30:11.692Z,16.40
2022-09-10T11:32:42.719Z,14.53
2022-09-10T11:35:15.142Z,14.17
2022-09-10T11:37:51.449Z,15.47
2022-09-10T11:40:23.025Z,15.50
2022-09-10T11:42:53.661Z,15.73
2022-09-10T11:45:28.585Z,12.93
2022-09-10T11:48:00.212Z,13.57
2022-09-10T11:50:34.476Z,12.80
2022-09-10T11:53:07.281Z,13.23
2022-09-10T11:55:42.746Z,14.07
2022-09-10T11:58:15.793Z,13.60
2022-09-10T12:00:52.553Z,13.40
2022-09-10T12:03:34.152Z,11.27
2022-09-10T12:06:05.819Z,10.70
2022-09-10T12:08:51.056Z,10.90
2022-09-10T12:11:24.844Z,9.70
2022-09-10T12:13:52.516Z,8.40
2022-09-10T12:16:32.090Z,7.10
2022-09-10T12:19:01.351Z,6.67
2022-09-10T12:21:33.504Z,6.13
2022-09-10T12:24:06.249Z,6.10
2022-09-10T12:26:41.779Z,6.00
2022-09-10T12:29:27.733Z,5.90
2022-09-10T12:32:28.494Z,7.57
2022-09-10T12:35:45.140Z,6.67
2022-09-10T12:38:46.820Z,6.10
2022-09-10T12:41:58.472Z,6.10
2022-09-10T12:44:52.409Z,6.47
2022-09-10T12:47:56.889Z,6.87
2022-09-10T12:50:46.930Z,6.30
2022-09-10T12:53:32.092Z,5.83
2022-09-10T12:56:02.669Z,6.70
2022-09-10T12:58:47.499Z,6.07
2022-09-10T13:01:21.364Z,5.70
2022-09-10T13:03:56.133Z,5.43
2022-09-10T13:06:35.214Z,8.20
2022-09-10T13:09:06.115Z,6.17
2022-09-10T13:11:37.343Z,5.80
2022-09-10T13:14:06.980Z,5.33
2022-09-10T13:16:40.216Z,5.47
2022-09-10T13:19:45.763Z,6.03
2022-09-10T13:22:33.826Z,5.57
2022-09-10T13:25:03.954Z,5.40
2022-09-10T13:27:40.053Z,5.10
2022-09-10T13:30:17.209Z,4.60
2022-09-10T13:32:48.253Z,4.90
2022-09-10T13:35:50.398Z,4.90
2022-09-10T13:39:03.119Z,4.57
2022-09-10T13:42:19.063Z,4.77
2022-09-10T13:45:00.406Z,5.50
2022-09-10T13:47:34.856Z,5.80
2022-09-10T13:50:05.938Z,4.93
2022-09-10T13:52:35.718Z,5.43
2022-09-10T13:55:04.771Z,4.30
2022-09-10T13:57:34.570Z,4.83
2022-09-10T14:00:07.653Z,5.10
2022-09-10T14:02:47.475Z,5.63
2022-09-10T14:05:27.284Z,4.77
2022-09-10T14:07:56.214Z,5.10
2022-09-10T14:10:24.235Z,4.80
2022-09-10T14:12:52.316Z,5.03
2022-09-10T14:15:21.924Z,5.70
2022-09-10T14:17:53.715Z,6.17
2022-09-10T14:20:26.285Z,5.13
2022-09-10T14:22:59.488Z,5.93
2022-09-10T14:25:31.183Z,6.17
2022-09-10T14:28:21.937Z,6.43
2022-09-10T14:30:50.821Z,6.20
2022-09-10T14:33:25.737Z,6.60
2022-09-10T14:35:54.078Z,5.40
2022-09-10T14:38:24.334Z,6.20
2022-09-10T14:40:56.833Z,6.87
2022-09-10T14:43:30.415Z,5.87
2022-09-10T14:45:58.457Z,5.50
2022-09-10T14:48:33.577Z,5.10
2022-09-10T14:51:19.945Z,4.77
2022-09-10T14:53:51.757Z,3.90
2022-09-10T14:56:23.885Z,4.27
2022-09-10T14:58:59.416Z,3.30
2022-09-10T15:01:27.708Z,2.90
2022-09-10T15:03:56.851Z,2.87
2022-09-10T15:06:26.793Z,2.80
2022-09-10T15:08:55.970Z,3.47
2022-09-10T15:11:25.369Z,2.80
2022-09-10T15:13:55.724Z,3.10
2022-09-10T15:16:24.084Z,3.00
2022-09-10T15:18:52.011Z,3.23
2022-09-10T15:21:21.208Z,2.87
2022-09-10T15:23:49.067Z,2.70
2022-09-10T15:26:17.217Z,2.80
2022-09-10T15:28:45.401Z,3.50
2022-09-10T15:31:13.075Z,2.50
2022-09-10T15:33:41.988Z,2.70
2022-09-10T15:36:10.072Z,2.70
2022-09-10T15:38:39.148Z,2.87
2022-09-10T15:41:12.878Z,3.23
2022-09-10T15:43:42.861Z,2.60
2022-09-10T15:46:11.612Z,3.07
2022-09-10T15:48:39.989Z,2.63
2022-09-10T15:51:10.035Z,2.63
2022-09-10T15:53:40.476Z,3.30
2022-09-10T15:56:09.961Z,2.53
2022-09-10T15:58:38.005Z,2.90
2022-09-10T16:01:07.682Z,3.20
2022-09-10T16:03:35.591Z,3.40
2022-09-10T16:06:04.690Z,3.60
2022-09-10T16:08:33.053Z,4.90
2022-09-10T16:11:08.116Z,3.80
2022-09-10T16:13:39.761Z,4.10
2022-09-10T16:16:09.505Z,3.83
2022-09-10T16:18:37.927Z,3.93
2022-09-10T16:21:11.467Z,3.60
2022-09-10T16:23:40.872Z,3.90
2022-09-10T16:26:11.366Z,3.60
2022-09-10T16:28:39.087Z,3.47
2022-09-10T16:31:14.678Z,3.80
2022-09-10T16:33:42.671Z,3.50
2022-09-10T16:36:11.166Z,3.03
2022-09-10T16:38:39.198Z,3.70
2022-09-10T16:41:07.721Z,4.00
2022-09-10T16:43:37.311Z,3.20
2022-09-10T16:46:05.855Z,4.00
2022-09-10T16:48:34.024Z,3.90
2022-09-10T16:51:06.380Z,3.70
2022-09-10T16:53:34.293Z,4.23
2022-09-10T16:56:02.293Z,3.43
2022-09-10T16:58:35.227Z,3.50
2022-09-10T17:01:06.158Z,3.90
2022-09-10T17:03:33.877Z,4.07
2022-09-10T17:06:01.555Z,3.80
2022-09-10T17:08:30.344Z,4.13
2022-09-10T17:10:57.994Z,3.90
2022-09-10T17:13:26.075Z,3.90
2022-09-10T17:15:54.212Z,4.37
2022-09-10T17:18:23.190Z,4.40
2022-09-10T17:20:53.717Z,3.90
2022-09-10T17:23:21.514Z,4.10
2022-09-10T17:25:49.241Z,4.70
2022-09-10T17:28:16.904Z,4.40
2022-09-10T17:30:45.302Z,5.13
2022-09-10T17:33:13.054Z,4.90
2022-09-10T17:35:42.071Z,5.00
2022-09-10T17:38:09.734Z,4.70
2022-09-10T17:40:38.426Z,4.20
2022-09-10T17:43:06.722Z,5.00
2022-09-10T17:45:38.170Z,4.83
2022-09-10T17:48:05.873Z,5.37
2022-09-10T17:50:33.477Z,5.03
2022-09-10T17:53:02.748Z,5.80
2022-09-10T17:55:33.769Z,5.37
2022-09-10T17:58:01.526Z,4.50
2022-09-10T18:00:29.323Z,5.90
2022-09-10T18:02:57.088Z,5.57
2022-09-10T18:05:26.475Z,5.67
2022-09-10T18:07:54.284Z,5.60
2022-09-10T18:10:23.659Z,6.60
2022-09-10T18:12:51.358Z,6.30
2022-09-10T18:15:19.690Z,7.23
2022-09-10T18:17:47.392Z,7.03
2022-09-10T18:20:15.290Z,8.17
2022-09-10T18:22:42.924Z,9.77
2022-09-10T18:25:10.763Z,11.43
2022-09-10T18:27:41.582Z,11.20
2022-09-10T18:30:10.216Z,12.60
2022-09-10T18:32:37.868Z,15.10
2022-09-10T18:35:06.660Z,14.73
2022-09-10T18:37:34.312Z,15.20
2022-09-10T18:40:02.485Z,15.97
2022-09-10T18:42:30.358Z,17.90
2022-09-10T18:44:59.446Z,18.77
2022-09-10T18:47:44.030Z,18.03
2022-09-10T18:50:13.565Z,19.43
2022-09-10T18:53:02.616Z,18.60
2022-09-10T18:55:30.164Z,20.60
2022-09-10T18:57:57.844Z,20.30
2022-09-10T19:00:26.768Z,21.00
2022-09-10T19:02:55.081Z,20.87
2022-09-10T19:05:22.752Z,20.70
2022-09-10T19:07:50.320Z,23.07
2022-09-10T19:10:18.010Z,22.60
2022-09-10T19:12:45.653Z,22.70
2022-09-10T19:15:13.267Z,25.40
2022-09-10T19:17:42.262Z,25.80
2022-09-10T19:20:10.718Z,25.10
2022-09-10T19:22:38.485Z,24.70
2022-09-10T19:25:07.174Z,26.40
2022-09-10T19:27:35.100Z,27.30
2022-09-10T19:30:02.762Z,27.23
2022-09-10T19:32:30.578Z,26.33
2022-09-10T19:34:59.876Z,28.00
2022-09-10T19:37:28.481Z,25.90
2022-09-10T19:39:57.373Z,26.90
2022-09-10T19:42:25.220Z,25.10
2022-09-10T19:44:53.060Z,25.77
2022-09-10T19:47:20.906Z,29.10
2022-09-10T19:49:48.611Z,27.70
2022-09-10T19:52:17.581Z,29.90
2022-09-10T19:54:45.201Z,28.07
2022-09-10T19:57:12.733Z,28.57
2022-09-10T19:59:40.624Z,31.43
2022-09-10T20:02:09.680Z,28.80
2022-09-10T20:04:37.400Z,30.33
2022-09-10T20:07:05.153Z,30.27
2022-09-10T20:09:39.218Z,27.77
2022-09-10T20:12:09.226Z,32.43
2022-09-10T20:14:37.233Z,29.80
2022-09-10T20:17:05.902Z,30.77
2022-09-10T20:19:33.484Z,30.27
2022-09-10T20:22:01.383Z,32.77
2022-09-10T20:24:29.095Z,32.63
2022-09-10T20:26:58.271Z,30.83
2022-09-10T20:29:26.433Z,34.40
2022-09-10T20:31:54.090Z,31.73
2022-09-10T20:34:22.747Z,33.87
2022-09-10T20:36:51.978Z,34.67
2022-09-10T20:39:22.274Z,33.47
2022-09-10T20:41:50.135Z,34.30
2022-09-10T20:44:19.880Z,36.30
2022-09-10T20:46:47.799Z,35.50
2022-09-10T20:49:16.291Z,34.97
2022-09-10T20:51:45.511Z,35.47
2022-09-10T20:54:14.273Z,36.47
2022-09-10T20:56:42.162Z,37.43
2022-09-10T20:59:10.133Z,37.37
2022-09-10T21:01:39.803Z,38.30
2022-09-10T21:04:07.494Z,38.00
2022-09-10T21:06:36.529Z,39.90
2022-09-10T21:09:05.882Z,41.20
2022-09-10T21:11:34.865Z,39.47
2022-09-10T21:14:04.092Z,38.17
2022-09-10T21:16:32.885Z,37.73
2022-09-10T21:19:03.050Z,39.93
2022-09-10T21:21:32.717Z,37.90
2022-09-10T21:24:01.932Z,38.77
2022-09-10T21:26:31.543Z,38.23
2022-09-10T21:29:00.887Z,37.23
2022-09-10T21:31:29.611Z,38.93
2022-09-10T21:34:02.441Z,37.37
2022-09-10T21:36:34.614Z,35.80
2022-09-10T21:39:03.266Z,37.87
2022-09-10T21:41:32.345Z,37.40
2022-09-10T21:44:00.770Z,39.90
2022-09-10T21:46:29.372Z,36.70
2022-09-10T21:48:57.101Z,36.03
2022-09-10T21:51:25.050Z,35.80
2022-09-10T21:53:55.877Z,36.43
2022-09-10T21:56:24.760Z,35.07
2022-09-10T21:58:52.876Z,36.70
2022-09-10T22:01:22.777Z,35.97
2022-09-10T22:03:52.577Z,37.30
2022-09-10T22:06:23.033Z,35.57
2022-09-10T22:08:51.958Z,36.67
2022-09-10T22:11:24.165Z,36.93
2022-09-10T22:13:53.055Z,35.10
2022-09-10T22:16:22.515Z,33.20
2022-09-10T22:18:50.822Z,35.20
2022-09-10T22:21:19.352Z,35.50
2022-09-10T22:23:47.469Z,34.10
2022-09-10T22:26:16.943Z,39.37
2022-09-10T22:28:46.947Z,64.03
2022-09-10T22:31:17.084Z,39.10
2022-09-10T22:33:46.357Z,38.57
2022-09-10T22:36:15.779Z,36.10
2022-09-10T22:38:43.961Z,37.33
2022-09-10T22:41:14.081Z,38.00
2022-09-10T22:43:42.845Z,38.17
2022-09-10T22:46:14.827Z,38.53
2022-09-10T22:48:43.781Z,39.13
2022-09-10T22:51:14.049Z,38.93
2022-09-10T22:53:42.847Z,39.83
2022-09-10T22:56:12.106Z,37.93
2022-09-10T22:58:39.898Z,40.93
2022-09-10T23:01:09.091Z,37.80
2022-09-10T23:03:38.464Z,39.63
2022-09-10T23:06:08.364Z,40.57
2022-09-10T23:08:36.497Z,39.20
2022-09-10T23:11:12.186Z,40.97
2022-09-10T23:13:41.232Z,40.23
2022-09-10T23:16:13.412Z,42.47
2022-09-10T23:18:43.392Z,38.33
2022-09-10T23:21:11.854Z,41.60
2022-09-10T23:23:39.843Z,40.67
2022-09-10T23:26:09.221Z,41.07
2022-09-10T23:28:37.216Z,41.43
2022-09-10T23:31:13.915Z,41.37
2022-09-10T23:33:45.138Z,43.10
2022-09-10T23:36:13.407Z,42.40
2022-09-10T23:38:41.347Z,41.67
2022-09-10T23:41:09.561Z,42.43
2022-09-10T23:43:37.355Z,44.17
2022-09-10T23:46:05.000Z,45.07
2022-09-10T23:48:32.964Z,47.37
2022-09-10T23:51:02.314Z,45.70
2022-09-10T23:53:30.144Z,44.00
2022-09-10T23:55:58.085Z,45.20
2022-09-10T23:58:26.019Z,47.27
